sensor_id;sensor_type;location;lat;lon;timestamp;pressure;altitude;pressure_sealevel;temperature;humidity
30584;BME280;17357;59.404;18.414;2022-11-20T00:00:50;101759.03;;;22.24;97.04
30584;BME280;17357;59.404;18.414;2022-11-20T00:03:16;101757.59;;;22.30;96.90
30584;BME280;17357;59.404;18.414;2022-11-20T00:05:43;101749.09;;;22.30;97.01
30584;BME280;17357;59.404;18.414;2022-11-20T00:08:08;101748.72;;;22.31;96.96
30584;BME280;17357;59.404;18.414;2022-11-20T00:10:38;101739.06;;;22.32;97.21
30584;BME280;17357;59.404;18.414;2022-11-20T00:13:04;101734.16;;;22.29;97.23
30584;BME280;17357;59.404;18.414;2022-11-20T00:15:29;101733.75;;;22.31;97.46
30584;BME280;17357;59.404;18.414;2022-11-20T00:17:54;101736.25;;;22.32;97.98
30584;BME280;17357;59.404;18.414;2022-11-20T00:20:20;101740.72;;;22.33;98.17
30584;BME280;17357;59.404;18.414;2022-11-20T00:22:45;101733.41;;;22.32;98.25
30584;BME280;17357;59.404;18.414;2022-11-20T00:25:11;101730.22;;;22.34;98.35
30584;BME280;17357;59.404;18.414;2022-11-20T00:27:36;101736.25;;;22.32;98.63
30584;BME280;17357;59.404;18.414;2022-11-20T00:30:03;101738.25;;;22.32;99.32
30584;BME280;17357;59.404;18.414;2022-11-20T00:32:29;101736.72;;;22.34;99.52
30584;BME280;17357;59.404;18.414;2022-11-20T00:34:54;101728.94;;;22.31;99.60
30584;BME280;17357;59.404;18.414;2022-11-20T00:37:19;101723.75;;;22.33;99.63
30584;BME280;17357;59.404;18.414;2022-11-20T00:39:45;101726.22;;;22.35;99.92
30584;BME280;17357;59.404;18.414;2022-11-20T00:42:10;101721.75;;;22.34;99.79
30584;BME280;17357;59.404;18.414;2022-11-20T00:44:36;101724.09;;;22.32;100.00
30584;BME280;17357;59.404;18.414;2022-11-20T00:47:01;101718.94;;;22.34;100.00
30584;BME280;17357;59.404;18.414;2022-11-20T00:49:26;101710.38;;;22.30;100.00
30584;BME280;17357;59.404;18.414;2022-11-20T00:51:52;101705.16;;;22.32;100.00
30584;BME280;17357;59.404;18.414;2022-11-20T00:54:17;101699.97;;;22.34;100.00
30584;BME280;17357;59.404;18.414;2022-11-20T00:56:42;101710.81;;;22.32;100.00
30584;BME280;17357;59.404;18.414;2022-11-20T00:59:08;101697.50;;;22.33;100.00
30584;BME280;17357;59.404;18.414;2022-11-20T01:01:36;101691.03;;;22.32;99.79
30584;BME280;17357;59.404;18.414;2022-11-20T01:04:01;101686.53;;;22.31;99.72
30584;BME280;17357;59.404;18.414;2022-11-20T01:06:29;101686.53;;;22.31;99.62
30584;BME280;17357;59.404;18.414;2022-11-20T01:08:57;101684.47;;;22.28;99.40
30584;BME280;17357;59.404;18.414;2022-11-20T01:11:31;101678.34;;;22.26;99.07
30584;BME280;17357;59.404;18.414;2022-11-20T01:13:58;101685.28;;;22.29;98.77
30584;BME280;17357;59.404;18.414;2022-11-20T01:16:26;101682.81;;;22.27;98.26
30584;BME280;17357;59.404;18.414;2022-11-20T01:18:55;101692.47;;;22.26;98.54
30584;BME280;17357;59.404;18.414;2022-11-20T01:21:26;101693.56;;;22.22;98.32
30584;BME280;17357;59.404;18.414;2022-11-20T01:23:52;101688.81;;;22.26;98.40
30584;BME280;17357;59.404;18.414;2022-11-20T01:26:20;101679.16;;;22.27;98.05
30584;BME280;17357;59.404;18.414;2022-11-20T01:28:47;101678.34;;;22.26;98.05
30584;BME280;17357;59.404;18.414;2022-11-20T01:31:16;101681.91;;;22.23;97.95
30584;BME280;17357;59.404;18.414;2022-11-20T01:33:42;101677.91;;;22.24;98.02
30584;BME280;17357;59.404;18.414;2022-11-20T01:36:09;101674.34;;;22.27;98.10
30584;BME280;17357;59.404;18.414;2022-11-20T01:38:35;101671.88;;;22.26;97.90
30584;BME280;17357;59.404;18.414;2022-11-20T01:41:00;101666.97;;;22.23;97.93
30584;BME280;17357;59.404;18.414;2022-11-20T01:43:26;101659.75;;;22.25;97.88
30584;BME280;17357;59.404;18.414;2022-11-20T01:49:23;101661.66;;;22.21;97.22
30584;BME280;17357;59.404;18.414;2022-11-20T01:51:31;101654.81;;;22.06;97.37
30584;BME280;17357;59.404;18.414;2022-11-20T01:54:00;101646.63;;;22.17;97.21
30584;BME280;17357;59.404;18.414;2022-11-20T01:56:28;101644.25;;;22.19;97.07
30584;BME280;17357;59.404;18.414;2022-11-20T01:58:58;101647.53;;;22.21;96.83
30584;BME280;17357;59.404;18.414;2022-11-20T02:01:26;101626.50;;;22.19;96.48
30584;BME280;17357;59.404;18.414;2022-11-20T02:03:52;101627.75;;;22.21;97.04
30584;BME280;17357;59.404;18.414;2022-11-20T02:08:46;101623.28;;;22.20;96.40
30584;BME280;17357;59.404;18.414;2022-11-20T02:11:11;101614.38;;;22.18;96.79
30584;BME280;17357;59.404;18.414;2022-11-20T02:13:38;101620.09;;;22.22;96.50
30584;BME280;17357;59.404;18.414;2022-11-20T02:16:33;101612.25;;;22.15;96.45
30584;BME280;17357;59.404;18.414;2022-11-20T02:19:00;101618.44;;;22.05;97.04
30584;BME280;17357;59.404;18.414;2022-11-20T02:24:01;101607.06;;;22.17;96.93
30584;BME280;17357;59.404;18.414;2022-11-20T02:26:30;101599.84;;;22.20;97.23
30584;BME280;17357;59.404;18.414;2022-11-20T02:28:56;101606.31;;;22.20;97.30
30584;BME280;17357;59.404;18.414;2022-11-20T02:31:23;101591.38;;;22.20;97.66
30584;BME280;17357;59.404;18.414;2022-11-20T02:33:54;101591.75;;;22.18;97.48
30584;BME280;17357;59.404;18.414;2022-11-20T02:36:20;101584.13;;;22.19;97.62
30584;BME280;17357;59.404;18.414;2022-11-20T02:38:46;101580.91;;;22.20;97.69
30584;BME280;17357;59.404;18.414;2022-11-20T02:41:13;101582.06;;;22.19;97.49
30584;BME280;17357;59.404;18.414;2022-11-20T02:43:38;101587.38;;;22.21;97.23
30584;BME280;17357;59.404;18.414;2022-11-20T02:46:06;101580.47;;;22.18;97.16
30584;BME280;17357;59.404;18.414;2022-11-20T02:48:32;101578.06;;;22.20;97.46
30584;BME280;17357;59.404;18.414;2022-11-20T02:50:57;101573.25;;;22.21;98.10
30584;BME280;17357;59.404;18.414;2022-11-20T02:53:22;101573.25;;;22.21;97.75
30584;BME280;17357;59.404;18.414;2022-11-20T02:55:48;101575.72;;;22.22;97.69
30584;BME280;17357;59.404;18.414;2022-11-20T02:58:13;101564.41;;;22.22;97.75
30584;BME280;17357;59.404;18.414;2022-11-20T03:00:38;101561.94;;;22.21;97.82
30584;BME280;17357;59.404;18.414;2022-11-20T03:03:04;101565.94;;;22.20;98.02
30584;BME280;17357;59.404;18.414;2022-11-20T03:05:29;101552.94;;;22.15;97.88
30584;BME280;17357;59.404;18.414;2022-11-20T03:07:54;101557.13;;;22.21;98.10
30584;BME280;17357;59.404;18.414;2022-11-20T03:10:20;101553.38;;;22.17;98.15
30584;BME280;17357;59.404;18.414;2022-11-20T03:12:45;101550.66;;;22.21;98.34
30584;BME280;17357;59.404;18.414;2022-11-20T03:15:10;101545.00;;;22.21;98.12
30584;BME280;17357;59.404;18.414;2022-11-20T03:17:36;101542.53;;;22.19;98.18
30584;BME280;17357;59.404;18.414;2022-11-20T03:20:02;101547.38;;;22.19;98.17
30584;BME280;17357;59.404;18.414;2022-11-20T03:22:30;101551.38;;;22.18;98.01
30584;BME280;17357;59.404;18.414;2022-11-20T03:24:56;101547.28;;;22.15;97.88
30584;BME280;17357;59.404;18.414;2022-11-20T03:27:21;101546.56;;;22.18;97.74
30584;BME280;17357;59.404;18.414;2022-11-20T03:29:47;101540.09;;;22.18;97.52
30584;BME280;17357;59.404;18.414;2022-11-20T03:32:12;101535.63;;;22.17;97.41
30584;BME280;17357;59.404;18.414;2022-11-20T03:34:37;101533.16;;;22.15;97.03
30584;BME280;17357;59.404;18.414;2022-11-20T03:37:03;101531.16;;;22.16;96.78
30584;BME280;17357;59.404;18.414;2022-11-20T03:39:28;101528.69;;;22.14;96.52
30584;BME280;17357;59.404;18.414;2022-11-20T03:41:53;101530.31;;;22.15;96.27
30584;BME280;17357;59.404;18.414;2022-11-20T03:44:21;101532.72;;;22.13;96.29
30584;BME280;17357;59.404;18.414;2022-11-20T03:46:46;101520.59;;;22.13;96.24
30584;BME280;17357;59.404;18.414;2022-11-20T03:49:11;101527.06;;;22.13;95.71
30584;BME280;17357;59.404;18.414;2022-11-20T03:51:37;101521.41;;;22.13;95.74
30584;BME280;17357;59.404;18.414;2022-11-20T03:54:05;101510.91;;;22.13;95.89
30584;BME280;17357;59.404;18.414;2022-11-20T03:56:34;101508.91;;;22.14;95.72
30584;BME280;17357;59.404;18.414;2022-11-20T03:59:00;101501.63;;;22.13;95.63
30584;BME280;17357;59.404;18.414;2022-11-20T04:01:28;101501.19;;;22.11;95.63
30584;BME280;17357;59.404;18.414;2022-11-20T04:03:55;101495.53;;;22.11;95.46
30584;BME280;17357;59.404;18.414;2022-11-20T04:06:26;101490.59;;;22.08;95.17
30584;BME280;17357;59.404;18.414;2022-11-20T04:08:56;101493.06;;;22.09;95.06
30584;BME280;17357;59.404;18.414;2022-11-20T04:11:27;101498.44;;;22.15;95.03
30584;BME280;17357;59.404;18.414;2022-11-20T04:13:53;101487.22;;;22.02;94.74
30584;BME280;17357;59.404;18.414;2022-11-20T04:16:20;101488.84;;;22.19;95.35
30584;BME280;17357;59.404;18.414;2022-11-20T04:18:45;101480.94;;;22.25;94.76
30584;BME280;17357;59.404;18.414;2022-11-20T04:21:11;101481.72;;;22.25;94.92
30584;BME280;17357;59.404;18.414;2022-11-20T04:23:37;101479.81;;;22.29;95.28
30584;BME280;17357;59.404;18.414;2022-11-20T04:26:08;101481.06;;;22.32;95.48
30584;BME280;17357;59.404;18.414;2022-11-20T04:28:34;101475.44;;;22.32;95.44
30584;BME280;17357;59.404;18.414;2022-11-20T04:31:04;101471.53;;;22.36;95.60
30584;BME280;17357;59.404;18.414;2022-11-20T04:33:30;101469.22;;;22.42;96.47
30584;BME280;17357;59.404;18.414;2022-11-20T04:36:00;101461.09;;;22.40;96.72
30584;BME280;17357;59.404;18.414;2022-11-20T04:38:25;101457.53;;;22.43;96.69
30584;BME280;17357;59.404;18.414;2022-11-20T04:40:51;101451.97;;;22.47;96.90
30584;BME280;17357;59.404;18.414;2022-11-20T04:43:16;101445.56;;;22.50;97.19
30584;BME280;17357;59.404;18.414;2022-11-20T04:45:41;101448.75;;;22.48;96.87
30584;BME280;17357;59.404;18.414;2022-11-20T04:48:07;101455.69;;;22.51;97.29
30584;BME280;17357;59.404;18.414;2022-11-20T04:50:32;101452.03;;;22.50;97.76
30584;BME280;17357;59.404;18.414;2022-11-20T04:52:57;101455.31;;;22.52;98.17
30584;BME280;17357;59.404;18.414;2022-11-20T04:55:23;101447.28;;;22.54;98.25
30584;BME280;17357;59.404;18.414;2022-11-20T04:57:50;101448.19;;;22.59;98.21
30584;BME280;17357;59.404;18.414;2022-11-20T05:00:16;101443.34;;;22.59;98.24
30584;BME280;17357;59.404;18.414;2022-11-20T05:02:42;101437.47;;;22.68;98.11
30584;BME280;17357;59.404;18.414;2022-11-20T05:05:07;101441.97;;;22.88;97.06
30584;BME280;17357;59.404;18.414;2022-11-20T05:07:33;101442.75;;;23.08;96.00
30584;BME280;17357;59.404;18.414;2022-11-20T05:09:58;101427.75;;;23.26;95.58
30584;BME280;17357;59.404;18.414;2022-11-20T05:12:23;101425.63;;;23.43;95.67
30584;BME280;17357;59.404;18.414;2022-11-20T05:14:49;101422.66;;;23.55;95.37
30584;BME280;17357;59.404;18.414;2022-11-20T05:17:14;101423.59;;;23.62;95.35
30584;BME280;17357;59.404;18.414;2022-11-20T05:19:39;101420.50;;;23.71;95.07
30584;BME280;17357;59.404;18.414;2022-11-20T05:22:05;101417.41;;;23.80;95.40
30584;BME280;17357;59.404;18.414;2022-11-20T05:24:30;101419.06;;;23.81;94.78
30584;BME280;17357;59.404;18.414;2022-11-20T05:26:55;101416.72;;;23.86;94.76
30584;BME280;17357;59.404;18.414;2022-11-20T05:29:21;101417.56;;;23.90;94.65
30584;BME280;17357;59.404;18.414;2022-11-20T05:31:46;101415.25;;;23.96;95.28
30584;BME280;17357;59.404;18.414;2022-11-20T05:34:11;101407.19;;;23.98;95.17
30584;BME280;17357;59.404;18.414;2022-11-20T05:36:37;101401.56;;;24.01;94.59
30584;BME280;17357;59.404;18.414;2022-11-20T05:39:02;101395.16;;;24.04;94.92
30584;BME280;17357;59.404;18.414;2022-11-20T05:41:28;101385.75;;;24.00;94.00
30584;BME280;17357;59.404;18.414;2022-11-20T05:43:55;101399.59;;;24.05;93.82
30584;BME280;17357;59.404;18.414;2022-11-20T05:46:21;101393.16;;;24.08;93.76
30584;BME280;17357;59.404;18.414;2022-11-20T05:48:46;101383.03;;;24.07;92.75
30584;BME280;17357;59.404;18.414;2022-11-20T05:51:15;101387.06;;;24.06;93.07
30584;BME280;17357;59.404;18.414;2022-11-20T05:53:41;101386.72;;;24.11;92.35
30584;BME280;17357;59.404;18.414;2022-11-20T05:56:10;101388.44;;;24.16;93.15
30584;BME280;17357;59.404;18.414;2022-11-20T05:58:36;101383.13;;;24.14;93.37
30584;BME280;17357;59.404;18.414;2022-11-20T06:01:18;101389.63;;;24.15;92.97
30584;BME280;17357;59.404;18.414;2022-11-20T06:03:45;101373.44;;;24.15;92.97
30584;BME280;17357;59.404;18.414;2022-11-20T06:06:13;101373.84;;;24.17;92.52
30584;BME280;17357;59.404;18.414;2022-11-20T06:08:39;101368.66;;;24.20;92.67
30584;BME280;17357;59.404;18.414;2022-11-20T06:11:09;101375.19;;;24.24;93.36
30584;BME280;17357;59.404;18.414;2022-11-20T06:13:35;101366.31;;;24.25;93.15
30584;BME280;17357;59.404;18.414;2022-11-20T06:16:01;101367.13;;;24.26;93.34
30584;BME280;17357;59.404;18.414;2022-11-20T06:18:27;101366.34;;;24.29;93.47
30584;BME280;17357;59.404;18.414;2022-11-20T06:21:10;101362.31;;;24.30;93.29
30584;BME280;17357;59.404;18.414;2022-11-20T06:23:36;101368.47;;;24.35;93.22
30584;BME280;17357;59.404;18.414;2022-11-20T06:26:11;101370.81;;;24.30;93.65
30584;BME280;17357;59.404;18.414;2022-11-20T06:28:37;101363.63;;;24.36;93.72
30584;BME280;17357;59.404;18.414;2022-11-20T06:31:03;101358.75;;;24.36;93.57
30584;BME280;17357;59.404;18.414;2022-11-20T06:33:29;101356.75;;;24.37;94.54
30584;BME280;17357;59.404;18.414;2022-11-20T06:35:58;101348.69;;;24.39;93.69
30584;BME280;17357;59.404;18.414;2022-11-20T06:38:27;101349.09;;;24.41;93.89
30584;BME280;17357;59.404;18.414;2022-11-20T06:40:53;101342.22;;;24.42;93.88
30584;BME280;17357;59.404;18.414;2022-11-20T06:43:18;101347.97;;;24.45;94.32
30584;BME280;17357;59.404;18.414;2022-11-20T06:45:44;101344.72;;;24.47;94.41
30584;BME280;17357;59.404;18.414;2022-11-20T06:48:09;101339.47;;;24.49;94.46
30584;BME280;17357;59.404;18.414;2022-11-20T06:50:38;101337.47;;;24.49;94.54
30584;BME280;17357;59.404;18.414;2022-11-20T06:53:04;101338.31;;;24.53;95.06
30584;BME280;17357;59.404;18.414;2022-11-20T06:55:31;101334.41;;;24.32;92.45
30584;BME280;17357;59.404;18.414;2022-11-20T06:57:57;101330.09;;;24.15;89.62
30584;BME280;17357;59.404;18.414;2022-11-20T07:00:22;101329.41;;;23.95;88.28
30584;BME280;17357;59.404;18.414;2022-11-20T07:02:48;101327.78;;;23.94;87.18
30584;BME280;17357;59.404;18.414;2022-11-20T07:05:13;101333.38;;;23.87;87.10
30584;BME280;17357;59.404;18.414;2022-11-20T07:07:38;101326.44;;;23.85;87.10
30584;BME280;17357;59.404;18.414;2022-11-20T07:10:04;101340.50;;;23.78;87.23
30584;BME280;17357;59.404;18.414;2022-11-20T07:12:30;101330.78;;;23.79;86.82
30584;BME280;17357;59.404;18.414;2022-11-20T07:14:55;101331.56;;;23.76;86.85
30584;BME280;17357;59.404;18.414;2022-11-20T07:17:21;101331.94;;;23.74;86.89
30584;BME280;17357;59.404;18.414;2022-11-20T07:19:46;101332.69;;;23.71;86.49
30584;BME280;17357;59.404;18.414;2022-11-20T07:22:12;101320.88;;;23.65;86.06
30584;BME280;17357;59.404;18.414;2022-11-20T07:24:38;101318.50;;;23.67;86.01
30584;BME280;17357;59.404;18.414;2022-11-20T07:27:04;101317.22;;;23.65;86.05
30584;BME280;17357;59.404;18.414;2022-11-20T07:29:29;101313.59;;;23.64;86.57
30584;BME280;17357;59.404;18.414;2022-11-20T07:31:55;101307.81;;;23.57;86.44
30584;BME280;17357;59.404;18.414;2022-11-20T07:34:21;101303.84;;;23.62;86.73
30584;BME280;17357;59.404;18.414;2022-11-20T07:36:47;101309.88;;;23.60;87.39
30584;BME280;17357;59.404;18.414;2022-11-20T07:39:12;101302.16;;;23.57;87.70
30584;BME280;17357;59.404;18.414;2022-11-20T07:41:37;101299.38;;;23.61;88.09
30584;BME280;17357;59.404;18.414;2022-11-20T07:44:03;101306.22;;;23.60;88.25
30584;BME280;17357;59.404;18.414;2022-11-20T07:46:28;101307.06;;;23.60;87.50
30584;BME280;17357;59.404;18.414;2022-11-20T07:48:53;101297.31;;;23.58;87.94
30584;BME280;17357;59.404;18.414;2022-11-20T07:51:19;101296.53;;;23.61;87.71
30584;BME280;17357;59.404;18.414;2022-11-20T07:53:44;101297.66;;;23.53;87.89
30584;BME280;17357;59.404;18.414;2022-11-20T07:56:10;101293.28;;;23.59;88.15
30584;BME280;17357;59.404;18.414;2022-11-20T07:58:35;101283.53;;;23.56;87.87
30584;BME280;17357;59.404;18.414;2022-11-20T08:01:07;101281.91;;;23.55;87.75
30584;BME280;17357;59.404;18.414;2022-11-20T08:03:33;101261.59;;;23.50;88.01
30584;BME280;17357;59.404;18.414;2022-11-20T08:06:00;101253.59;;;23.55;87.44
30584;BME280;17357;59.404;18.414;2022-11-20T08:08:28;101250.75;;;23.55;87.75
30584;BME280;17357;59.404;18.414;2022-11-20T08:10:54;101250.28;;;23.50;87.84
30584;BME280;17357;59.404;18.414;2022-11-20T08:13:39;101243.84;;;23.53;87.41
30584;BME280;17357;59.404;18.414;2022-11-20T08:16:23;101243.47;;;23.54;87.07
30584;BME280;17357;59.404;18.414;2022-11-20T08:18:48;101242.22;;;23.52;86.97
30584;BME280;17357;59.404;18.414;2022-11-20T08:21:14;101232.53;;;23.53;86.85
30584;BME280;17357;59.404;18.414;2022-11-20T08:23:40;101249.56;;;23.56;87.17
30584;BME280;17357;59.404;18.414;2022-11-20T08:26:05;101239.06;;;23.57;86.96
30584;BME280;17357;59.404;18.414;2022-11-20T08:28:30;101235.03;;;23.58;87.16
30584;BME280;17357;59.404;18.414;2022-11-20T08:31:00;101225.72;;;23.57;86.33
30584;BME280;17357;59.404;18.414;2022-11-20T08:33:25;101222.06;;;23.57;86.85
30584;BME280;17357;59.404;18.414;2022-11-20T08:35:51;101218.41;;;23.56;87.44
30584;BME280;17357;59.404;18.414;2022-11-20T08:38:16;101206.66;;;23.54;87.38
30584;BME280;17357;59.404;18.414;2022-11-20T08:40:42;101209.97;;;23.60;86.71
30584;BME280;17357;59.404;18.414;2022-11-20T08:43:27;101208.28;;;23.55;86.93
30584;BME280;17357;59.404;18.414;2022-11-20T08:45:52;101206.28;;;23.56;86.94
30584;BME280;17357;59.404;18.414;2022-11-20T08:48:18;101209.09;;;23.56;87.28
30584;BME280;17357;59.404;18.414;2022-11-20T08:50:44;101195.28;;;23.51;86.34
30584;BME280;17357;59.404;18.414;2022-11-20T08:53:09;101208.72;;;23.57;86.32
30584;BME280;17357;59.404;18.414;2022-11-20T08:55:35;101202.66;;;23.59;87.05
30584;BME280;17357;59.404;18.414;2022-11-20T08:58:05;101193.31;;;23.55;86.66
30584;BME280;17357;59.404;18.414;2022-11-20T09:00:30;101193.31;;;23.55;86.60
30584;BME280;17357;59.404;18.414;2022-11-20T09:02:57;101188.03;;;23.53;86.86
30584;BME280;17357;59.404;18.414;2022-11-20T09:05:23;101188.91;;;23.57;86.45
30584;BME280;17357;59.404;18.414;2022-11-20T09:07:49;101192.97;;;23.60;87.00
30584;BME280;17357;59.404;18.414;2022-11-20T09:10:14;101188.09;;;23.57;86.86
30584;BME280;17357;59.404;18.414;2022-11-20T09:12:39;101183.19;;;23.54;86.67
30584;BME280;17357;59.404;18.414;2022-11-20T09:15:05;101186.06;;;23.57;87.22
30584;BME280;17357;59.404;18.414;2022-11-20T09:17:31;101186.91;;;23.58;87.13
30584;BME280;17357;59.404;18.414;2022-11-20T09:19:56;101184.09;;;23.61;87.43
30584;BME280;17357;59.404;18.414;2022-11-20T09:22:21;101173.59;;;23.62;86.82
30584;BME280;17357;59.404;18.414;2022-11-20T09:24:47;101172.34;;;23.59;87.27
30584;BME280;17357;59.404;18.414;2022-11-20T09:27:12;101171.19;;;23.64;87.19
30584;BME280;17357;59.404;18.414;2022-11-20T09:29:37;101162.31;;;23.65;87.54
30584;BME280;17357;59.404;18.414;2022-11-20T09:32:03;101168.75;;;23.62;87.99
30584;BME280;17357;59.404;18.414;2022-11-20T09:34:28;101166.28;;;23.61;87.16
30584;BME280;17357;59.404;18.414;2022-11-20T09:36:54;101155.78;;;23.61;87.81
30584;BME280;17357;59.404;18.414;2022-11-20T09:39:19;101159.00;;;23.60;88.01
30584;BME280;17357;59.404;18.414;2022-11-20T09:44:36;101153.31;;;23.60;87.88
30584;BME280;17357;59.404;18.414;2022-11-20T09:47:12;101150.09;;;23.58;88.38
30584;BME280;17357;59.404;18.414;2022-11-20T09:50:05;101144.34;;;23.54;88.60
30584;BME280;17357;59.404;18.414;2022-11-20T09:53:20;101132.22;;;23.54;88.01
30584;BME280;17357;59.404;18.414;2022-11-20T09:55:49;101130.28;;;23.58;88.37
30584;BME280;17357;59.404;18.414;2022-11-20T09:58:50;101132.22;;;23.54;87.91
30584;BME280;17357;59.404;18.414;2022-11-20T10:01:17;101129.88;;;23.59;88.24
30584;BME280;17357;59.404;18.414;2022-11-20T10:03:57;101122.53;;;23.55;88.30
30584;BME280;17357;59.404;18.414;2022-11-20T10:06:33;101123.38;;;23.59;88.09
30584;BME280;17357;59.404;18.414;2022-11-20T10:09:31;101110.78;;;23.53;87.75
30584;BME280;17357;59.404;18.414;2022-11-20T10:18:11;101094.22;;;23.55;87.30
30584;BME280;17357;59.404;18.414;2022-11-20T10:24:08;101087.72;;;23.51;87.26
30584;BME280;17357;59.404;18.414;2022-11-20T10:29:33;101085.31;;;23.53;87.23
30584;BME280;17357;59.404;18.414;2022-11-20T10:32:14;101086.06;;;23.50;86.73
30584;BME280;17357;59.404;18.414;2022-11-20T10:37:22;101079.66;;;23.53;86.65
30584;BME280;17357;59.404;18.414;2022-11-20T10:39:59;101073.59;;;23.54;86.57
30584;BME280;17357;59.404;18.414;2022-11-20T10:42:31;101067.50;;;23.52;86.38
30584;BME280;17357;59.404;18.414;2022-11-20T10:47:49;101068.34;;;23.56;86.62
30584;BME280;17357;59.404;18.414;2022-11-20T10:50:18;101061.88;;;23.56;86.39
30584;BME280;17357;59.404;18.414;2022-11-20T11:00:31;101062.66;;;23.53;86.85
30584;BME280;17357;59.404;18.414;2022-11-20T11:02:56;101048.16;;;23.58;86.75
30584;BME280;17357;59.404;18.414;2022-11-20T11:05:38;101050.56;;;23.56;86.06
30584;BME280;17357;59.404;18.414;2022-11-20T11:08:12;101048.53;;;23.56;86.23
30584;BME280;17357;59.404;18.414;2022-11-20T11:10:50;101037.19;;;23.53;86.36
30584;BME280;17357;59.404;18.414;2022-11-20T11:13:25;101038.78;;;23.54;86.43
30584;BME280;17357;59.404;18.414;2022-11-20T11:15:51;101036.47;;;23.63;86.82
30584;BME280;17357;59.404;18.414;2022-11-20T11:20:53;101022.28;;;23.59;86.19
30584;BME280;17357;59.404;18.414;2022-11-20T11:23:38;101020.59;;;23.55;86.20
30584;BME280;17357;59.404;18.414;2022-11-20T11:26:06;101013.41;;;23.61;86.62
30584;BME280;17357;59.404;18.414;2022-11-20T11:28:34;101005.25;;;23.56;86.79
30584;BME280;17357;59.404;18.414;2022-11-20T11:30:59;101002.06;;;23.61;87.14
30584;BME280;17357;59.404;18.414;2022-11-20T11:33:30;100993.94;;;23.56;87.31
30584;BME280;17357;59.404;18.414;2022-11-20T11:36:02;100993.13;;;23.55;87.15
30584;BME280;17357;59.404;18.414;2022-11-20T11:40:56;100985.06;;;23.57;87.86
30584;BME280;17357;59.404;18.414;2022-11-20T11:43:28;100977.38;;;23.58;87.87
30584;BME280;17357;59.404;18.414;2022-11-20T11:56:58;100967.63;;;23.55;89.41
30584;BME280;17357;59.404;18.414;2022-11-20T11:59:31;100952.72;;;23.58;88.93
30584;BME280;17357;59.404;18.414;2022-11-20T12:02:01;100963.22;;;23.58;89.38
30584;BME280;17357;59.404;18.414;2022-11-20T12:07:04;100950.66;;;23.59;89.39
30584;BME280;17357;59.404;18.414;2022-11-20T12:09:37;100956.38;;;23.62;88.95
30584;BME280;17357;59.404;18.414;2022-11-20T12:12:09;100948.28;;;23.61;89.13
30584;BME280;17357;59.404;18.414;2022-11-20T12:14:37;100947.06;;;23.62;89.81
30584;BME280;17357;59.404;18.414;2022-11-20T12:17:04;100932.47;;;23.60;89.32
30584;BME280;17357;59.404;18.414;2022-11-20T12:19:31;100933.34;;;23.64;89.45
30584;BME280;17357;59.404;18.414;2022-11-20T12:30:16;100928.03;;;23.59;89.04
30584;BME280;17357;59.404;18.414;2022-11-20T12:44:20;100914.63;;;23.52;88.02
30584;BME280;17357;59.404;18.414;2022-11-20T12:47:14;100929.63;;;23.56;87.60
30584;BME280;17357;59.404;18.414;2022-11-20T12:52:53;100908.19;;;23.55;87.18
30584;BME280;17357;59.404;18.414;2022-11-20T12:58:18;100901.63;;;23.48;87.72
30584;BME280;17357;59.404;18.414;2022-11-20T13:01:23;100902.88;;;23.50;87.65
30584;BME280;17357;59.404;18.414;2022-11-20T13:07:10;100884.31;;;23.53;87.84
30584;BME280;17357;59.404;18.414;2022-11-20T13:09:42;100883.94;;;23.58;87.52
30584;BME280;17357;59.404;18.414;2022-11-20T13:12:15;100879.88;;;23.59;87.79
30584;BME280;17357;59.404;18.414;2022-11-20T13:15:08;100884.34;;;23.60;87.11
30584;BME280;17357;59.404;18.414;2022-11-20T13:17:45;100873.41;;;23.55;87.58
30584;BME280;17357;59.404;18.414;2022-11-20T13:20:15;100872.66;;;23.61;87.42
30584;BME280;17357;59.404;18.414;2022-11-20T13:22:49;100870.56;;;23.55;87.29
30584;BME280;17357;59.404;18.414;2022-11-20T13:25:29;100871.00;;;23.57;87.21
30584;BME280;17357;59.404;18.414;2022-11-20T13:27:57;100865.78;;;23.62;86.96
30584;BME280;17357;59.404;18.414;2022-11-20T13:30:24;100862.13;;;23.62;86.97
30584;BME280;17357;59.404;18.414;2022-11-20T13:35:25;100861.72;;;23.60;86.97
30584;BME280;17357;59.404;18.414;2022-11-20T13:38:00;100863.72;;;23.59;87.00
30584;BME280;17357;59.404;18.414;2022-11-20T13:40:26;100841.94;;;23.63;87.16
30584;BME280;17357;59.404;18.414;2022-11-20T13:45:41;100849.56;;;23.59;87.43
30584;BME280;17357;59.404;18.414;2022-11-20T13:48:24;100841.06;;;23.56;87.19
30584;BME280;17357;59.404;18.414;2022-11-20T14:02:01;100825.72;;;23.60;87.86
30584;BME280;17357;59.404;18.414;2022-11-20T14:04:33;100823.28;;;23.59;88.13
30584;BME280;17357;59.404;18.414;2022-11-20T14:07:00;100819.28;;;23.67;88.21
30584;BME280;17357;59.404;18.414;2022-11-20T14:09:31;100814.03;;;23.65;88.78
30584;BME280;17357;59.404;18.414;2022-11-20T14:11:57;100814.44;;;23.67;88.64
30584;BME280;17357;59.404;18.414;2022-11-20T14:14:27;100805.13;;;23.67;88.47
30584;BME280;17357;59.404;18.414;2022-11-20T14:17:07;100806.28;;;23.59;88.67
30584;BME280;17357;59.404;18.414;2022-11-20T14:19:33;100799.47;;;23.63;88.54
30584;BME280;17357;59.404;18.414;2022-11-20T14:24:44;100795.44;;;23.68;88.62
30584;BME280;17357;59.404;18.414;2022-11-20T14:27:18;100799.03;;;23.65;88.22
30584;BME280;17357;59.404;18.414;2022-11-20T14:29:46;100803.13;;;23.67;88.67